Time;durP1;ratioP1;P1;durP2;ratioP2;P2;SDS_P1;SDS_P2;PMS_P1;PMS_P2;Temp;Humidity;BMP_temperature;BMP_pressure;BME280_temperature;BME280_humidity;BME280_pressure;Samples;Min_cycle;Max_cycle;Signal;HPM_P1;HPM_P2
2021/07/24 00:01:26;;;;;;;8.90;4.45;;;16.10;99.90;;;;;;5052313;28;20120;-84
2021/07/24 00:04:13;;;;;;;7.28;4.18;;;16.00;99.90;;;;;;5055275;28;20053;-86
2021/07/24 00:07:05;;;;;;;7.30;4.43;;;15.80;99.90;;;;;;5051060;28;20163;-85
2021/07/24 00:09:52;;;;;;;10.77;4.72;;;15.80;99.90;;;;;;5059085;28;20104;-88
2021/07/24 00:12:39;;;;;;;6.88;4.28;;;15.50;99.90;;;;;;5060304;28;20183;-85
2021/07/24 00:15:27;;;;;;;7.95;4.63;;;15.50;99.90;;;;;;5054025;28;20500;-87
2021/07/24 00:18:14;;;;;;;7.10;4.50;;;15.60;99.90;;;;;;5060553;28;20071;-85
2021/07/24 00:21:05;;;;;;;7.57;4.43;;;15.60;99.90;;;;;;5063946;28;20041;-86
2021/07/24 00:23:52;;;;;;;8.20;4.25;;;15.60;99.90;;;;;;5059023;28;20569;-86
2021/07/24 00:26:39;;;;;;;7.53;4.32;;;15.50;99.90;;;;;;5056892;28;20128;-84
2021/07/24 00:29:26;;;;;;;9.15;3.85;;;15.50;99.90;;;;;;5058847;28;20067;-88
2021/07/24 00:32:15;;;;;;;7.25;4.25;;;16.30;99.90;;;;;;5055773;28;20519;-86
2021/07/24 00:35:02;;;;;;;7.25;4.15;;;15.40;99.90;;;;;;5059946;28;20048;-85
2021/07/24 00:37:51;;;;;;;6.88;4.07;;;15.40;99.90;;;;;;5055521;28;20419;-83
2021/07/24 00:40:42;;;;;;;8.43;3.83;;;15.40;99.90;;;;;;5055965;28;20123;-83
2021/07/24 00:43:34;;;;;;;10.43;4.25;;;15.50;99.90;;;;;;5055896;28;20037;-87
2021/07/24 00:46:24;;;;;;;6.82;4.05;;;15.50;99.90;;;;;;5053431;28;20168;-86
2021/07/24 00:49:13;;;;;;;8.02;4.00;;;15.60;99.90;;;;;;5052462;28;20513;-87
2021/07/24 00:52:00;;;;;;;9.07;4.20;;;16.90;99.90;;;;;;5059252;28;20041;-84
2021/07/24 00:54:47;;;;;;;7.95;4.55;;;15.60;99.90;;;;;;5055688;28;20045;-84
2021/07/24 00:57:35;;;;;;;6.00;3.58;;;15.40;99.90;;;;;;5055675;28;20041;-86
2021/07/24 01:00:22;;;;;;;8.27;3.47;;;15.40;99.90;;;;;;5056294;28;20044;-85
2021/07/24 01:03:09;;;;;;;6.78;3.97;;;15.40;99.90;;;;;;5059734;28;20130;-85
2021/07/24 01:05:59;;;;;;;6.53;3.63;;;15.40;99.90;;;;;;5057745;28;20041;-88
2021/07/24 01:08:48;;;;;;;7.28;4.47;;;15.30;99.90;;;;;;5050922;28;20040;-87
2021/07/24 01:11:35;;;;;;;7.45;4.13;;;15.30;99.90;;;;;;5056124;28;20041;-86
2021/07/24 01:14:23;;;;;;;7.72;4.35;;;15.30;99.90;;;;;;5045289;28;20053;-87
2021/07/24 01:17:10;;;;;;;7.45;4.10;;;15.30;99.90;;;;;;5060882;28;20041;-86
2021/07/24 01:19:57;;;;;;;8.82;4.07;;;15.30;99.90;;;;;;5063883;28;20128;-88
2021/07/24 01:22:46;;;;;;;7.43;4.28;;;15.30;99.90;;;;;;5059688;28;20139;-86
2021/07/24 01:25:33;;;;;;;6.68;3.85;;;15.30;99.90;;;;;;5064944;28;20093;-89
2021/07/24 01:28:24;;;;;;;9.98;4.22;;;15.30;99.90;;;;;;5056903;28;20087;-91
2021/07/24 01:31:11;;;;;;;6.28;4.00;;;15.30;99.90;;;;;;5059462;28;20144;-87
2021/07/24 01:33:59;;;;;;;8.30;4.13;;;15.30;99.90;;;;;;5057162;28;20051;-86
2021/07/24 01:36:46;;;;;;;6.13;3.85;;;15.40;99.90;;;;;;5057037;28;20108;-89
2021/07/24 01:39:34;;;;;;;7.30;4.10;;;15.40;99.90;;;;;;5054745;28;20154;-88
2021/07/24 01:42:21;;;;;;;7.75;4.35;;;15.40;99.90;;;;;;5061244;28;20447;-84
2021/07/24 01:45:10;;;;;;;8.63;4.53;;;15.20;99.90;;;;;;5065113;28;20044;-88
2021/07/24 01:47:57;;;;;;;7.18;4.47;;;15.10;99.90;;;;;;5053803;28;20072;-85
2021/07/24 01:53:52;;;;;;;9.88;4.82;;;15.10;99.90;;;;;;5054022;28;20049;-86
2021/07/24 01:56:41;;;;;;;8.50;4.45;;;15.20;99.90;;;;;;5049267;28;20045;-87
2021/07/24 01:59:34;;;;;;;7.85;4.53;;;15.10;99.90;;;;;;5053897;28;20047;-89
2021/07/24 02:02:24;;;;;;;7.85;4.78;;;15.10;99.90;;;;;;5055791;28;20048;-86
2021/07/24 02:05:25;;;;;;;9.57;5.43;;;15.10;99.90;;;;;;5051264;28;20045;-91
2021/07/24 02:08:17;;;;;;;7.43;4.63;;;15.90;99.90;;;;;;5046904;28;20047;-88
2021/07/24 02:11:05;;;;;;;8.13;4.47;;;15.00;99.90;;;;;;5058775;28;20037;-89
2021/07/24 02:13:54;;;;;;;8.55;4.60;;;15.00;99.90;;;;;;5058565;28;20044;-88
2021/07/24 02:16:41;;;;;;;10.27;5.07;;;15.00;99.90;;;;;;5046248;28;20048;-83
2021/07/24 02:19:32;;;;;;;9.23;4.28;;;14.30;99.90;;;;;;5061508;28;20053;-88
2021/07/24 02:22:19;;;;;;;8.88;4.82;;;15.00;99.90;;;;;;5055136;28;20518;-88
2021/07/24 02:25:07;;;;;;;8.60;4.90;;;14.90;99.90;;;;;;5057393;28;20049;-84
2021/07/24 02:27:54;;;;;;;7.47;4.55;;;14.90;99.90;;;;;;5058038;28;20126;-86
2021/07/24 02:30:43;;;;;;;9.48;5.13;;;15.00;99.90;;;;;;5056902;28;20104;-91
2021/07/24 02:33:30;;;;;;;8.20;5.00;;;14.90;99.90;;;;;;5052774;28;20045;-87
2021/07/24 02:36:17;;;;;;;8.07;4.60;;;16.40;99.90;;;;;;5054688;28;20268;-87
2021/07/24 02:39:04;;;;;;;9.25;5.20;;;15.00;99.90;;;;;;5054626;28;20038;-87
2021/07/24 02:41:52;;;;;;;6.30;4.22;;;14.90;99.90;;;;;;5058744;28;20052;-88
2021/07/24 02:44:39;;;;;;;8.23;4.65;;;15.00;99.90;;;;;;5051654;28;20052;-87
2021/07/24 02:47:27;;;;;;;11.52;5.00;;;14.90;99.90;;;;;;5052071;28;20045;-89
2021/07/24 02:50:14;;;;;;;8.30;4.88;;;14.90;99.90;;;;;;5057114;28;20060;-87
2021/07/24 02:53:01;;;;;;;8.23;4.80;;;14.90;99.90;;;;;;5054234;28;20132;-89
2021/07/24 02:55:48;;;;;;;8.93;4.72;;;14.80;99.90;;;;;;5060139;28;20051;-90
2021/07/24 02:58:36;;;;;;;9.70;4.72;;;14.90;99.90;;;;;;5056763;28;20123;-82
2021/07/24 03:01:23;;;;;;;7.97;4.95;;;14.80;99.90;;;;;;5059111;28;20440;-89
2021/07/24 03:04:11;;;;;;;6.90;4.40;;;14.80;99.90;;;;;;5058689;28;20049;-86
2021/07/24 03:06:58;;;;;;;10.10;4.55;;;14.80;99.90;;;;;;5065474;28;20100;-91
2021/07/24 03:09:46;;;;;;;8.70;4.88;;;14.80;99.90;;;;;;5060619;28;20094;-86
2021/07/24 03:12:33;;;;;;;9.45;5.10;;;14.70;99.90;;;;;;5059686;28;20047;-83
2021/07/24 03:15:20;;;;;;;7.70;4.78;;;14.70;99.90;;;;;;5057347;28;20045;-84
2021/07/24 03:18:07;;;;;;;10.75;5.45;;;14.60;99.90;;;;;;5056687;28;20033;-88
2021/07/24 03:20:56;;;;;;;8.70;5.32;;;14.70;99.90;;;;;;5060500;28;20485;-87
2021/07/24 03:23:43;;;;;;;7.85;4.57;;;14.60;99.90;;;;;;5062529;28;20049;-86
2021/07/24 03:26:31;;;;;;;8.52;4.75;;;14.50;99.90;;;;;;5066151;28;20045;-89
2021/07/24 03:29:18;;;;;;;9.45;4.80;;;14.50;99.90;;;;;;5058929;28;20047;-86
2021/07/24 03:32:06;;;;;;;7.65;4.88;;;14.50;99.90;;;;;;5060760;28;20041;-85
2021/07/24 03:34:53;;;;;;;7.43;4.75;;;14.50;99.90;;;;;;5059882;28;20523;-84
2021/07/24 03:37:42;;;;;;;8.88;4.85;;;14.50;99.90;;;;;;5054920;28;20094;-86
2021/07/24 03:40:29;;;;;;;7.20;4.38;;;14.40;99.90;;;;;;5056785;28;20048;-87
2021/07/24 03:43:16;;;;;;;9.63;5.18;;;14.40;99.90;;;;;;5059603;28;20049;-84
2021/07/24 03:46:11;;;;;;;10.30;5.40;;;14.40;99.90;;;;;;5056815;28;20049;-86
2021/07/24 03:48:58;;;;;;;7.35;4.35;;;14.40;99.90;;;;;;5058362;28;20044;-86
2021/07/24 03:51:45;;;;;;;6.65;4.05;;;14.30;99.90;;;;;;5055446;28;20131;-86
2021/07/24 03:54:34;;;;;;;7.60;4.82;;;14.30;99.90;;;;;;5061727;28;20053;-87
2021/07/24 03:57:21;;;;;;;8.50;4.32;;;14.30;99.90;;;;;;5058375;28;20052;-87
2021/07/24 04:00:10;;;;;;;10.25;5.10;;;14.30;99.90;;;;;;5054630;28;20041;-84
2021/07/24 04:03:00;;;;;;;7.97;4.47;;;14.30;99.90;;;;;;5062796;28;20488;-85
2021/07/24 04:05:47;;;;;;;7.10;4.22;;;14.30;99.90;;;;;;5063819;28;20053;-86
2021/07/24 04:08:35;;;;;;;7.85;4.95;;;14.30;99.90;;;;;;5054532;28;20049;-86
2021/07/24 04:11:25;;;;;;;7.53;4.95;;;14.20;99.90;;;;;;5058085;28;20049;-86
2021/07/24 04:14:13;;;;;;;8.68;4.88;;;14.20;99.90;;;;;;5061783;28;20052;-86
2021/07/24 04:17:00;;;;;;;8.45;5.05;;;14.20;99.90;;;;;;5057529;28;20041;-84
2021/07/24 04:19:48;;;;;;;9.18;5.20;;;15.70;99.90;;;;;;5054159;28;20076;-86
2021/07/24 04:22:35;;;;;;;9.00;5.00;;;14.30;99.90;;;;;;5041929;28;20041;-84
2021/07/24 04:25:22;;;;;;;10.88;5.40;;;14.30;99.90;;;;;;5057439;28;20045;-86
2021/07/24 04:28:11;;;;;;;7.50;4.63;;;14.30;99.90;;;;;;5057828;28;20056;-87
2021/07/24 04:30:58;;;;;;;11.18;5.13;;;14.30;99.90;;;;;;5057397;28;20037;-84
2021/07/24 04:33:46;;;;;;;12.65;5.28;;;14.30;99.90;;;;;;5051841;28;20120;-84
2021/07/24 04:36:33;;;;;;;8.00;4.43;;;14.30;99.90;;;;;;5058576;28;20041;-86
2021/07/24 04:39:20;;;;;;;8.95;4.40;;;14.30;99.90;;;;;;5052820;28;20041;-86
2021/07/24 04:42:07;;;;;;;9.00;4.38;;;14.30;99.90;;;;;;5053934;28;20040;-85
2021/07/24 04:44:56;;;;;;;7.93;4.28;;;14.30;99.90;;;;;;5057663;28;20051;-86
2021/07/24 04:47:43;;;;;;;7.75;4.63;;;14.30;99.90;;;;;;5051720;28;20178;-86
2021/07/24 04:50:30;;;;;;;9.30;4.22;;;14.30;99.90;;;;;;5054173;28;20094;-87
2021/07/24 04:53:17;;;;;;;9.43;4.60;;;14.40;99.90;;;;;;5058354;28;20453;-85
2021/07/24 04:56:07;;;;;;;9.63;5.25;;;14.60;99.90;;;;;;5054566;28;20051;-87
2021/07/24 04:58:54;;;;;;;8.38;5.00;;;14.50;99.90;;;;;;5054941;28;20060;-84
2021/07/24 05:01:42;;;;;;;8.90;5.03;;;14.50;99.90;;;;;;5051667;28;20045;-86
2021/07/24 05:04:31;;;;;;;9.38;5.63;;;15.30;99.90;;;;;;5054796;28;20363;-86
2021/07/24 05:07:19;;;;;;;9.00;5.13;;;14.60;99.90;;;;;;5051567;28;20075;-85
2021/07/24 05:10:08;;;;;;;12.00;5.90;;;14.60;99.90;;;;;;5058712;28;20042;-84
2021/07/24 05:12:55;;;;;;;9.63;5.15;;;14.70;99.90;;;;;;5062363;28;20063;-86
2021/07/24 05:15:43;;;;;;;9.88;5.75;;;14.80;99.90;;;;;;5061590;28;20055;-84
2021/07/24 05:18:31;;;;;;;8.45;5.15;;;14.90;99.90;;;;;;5052901;28;20049;-87
2021/07/24 05:21:18;;;;;;;8.48;5.00;;;15.00;99.90;;;;;;5059158;28;20143;-84
2021/07/24 05:24:05;;;;;;;7.80;4.07;;;15.00;99.90;;;;;;5058565;28;20135;-86
2021/07/24 05:26:53;;;;;;;7.53;4.65;;;15.10;99.90;;;;;;5044551;28;20056;-85
2021/07/24 05:29:40;;;;;;;7.47;4.75;;;15.20;99.90;;;;;;5060265;28;20041;-87
2021/07/24 05:32:27;;;;;;;7.88;4.70;;;15.30;99.90;;;;;;5054803;28;20041;-87
2021/07/24 05:35:16;;;;;;;9.20;5.18;;;15.40;99.90;;;;;;5056005;28;20049;-86
2021/07/24 05:38:04;;;;;;;8.07;4.80;;;15.40;99.90;;;;;;5056951;28;20051;-86
2021/07/24 05:40:51;;;;;;;10.05;4.65;;;15.50;99.90;;;;;;5054586;28;20043;-89
2021/07/24 05:43:38;;;;;;;8.77;4.40;;;15.50;99.90;;;;;;5053740;28;20059;-88
2021/07/24 05:46:25;;;;;;;8.45;4.80;;;15.50;99.90;;;;;;5051750;28;20043;-85
2021/07/24 05:49:13;;;;;;;9.20;4.68;;;15.60;99.90;;;;;;5055963;28;20037;-85
2021/07/24 05:52:01;;;;;;;8.20;4.80;;;15.70;99.90;;;;;;5057924;28;20581;-86
2021/07/24 05:54:49;;;;;;;7.18;4.55;;;15.90;99.90;;;;;;5066102;28;20056;-87
2021/07/24 05:57:36;;;;;;;8.85;4.75;;;16.00;99.90;;;;;;5056990;28;20068;-87
2021/07/24 06:00:23;;;;;;;8.00;4.60;;;16.10;99.90;;;;;;5048043;28;21101;-85
2021/07/24 06:03:11;;;;;;;10.70;5.20;;;16.10;99.90;;;;;;5058352;28;20049;-87
2021/07/24 06:06:01;;;;;;;9.10;4.97;;;16.20;99.90;;;;;;5062198;28;20119;-87
2021/07/24 06:08:49;;;;;;;8.20;4.25;;;16.20;99.90;;;;;;5051776;28;20516;-87
2021/07/24 06:11:37;;;;;;;8.20;4.20;;;16.40;99.90;;;;;;5059006;28;20051;-84
2021/07/24 06:14:40;;;;;;;8.35;3.78;;;16.50;99.90;;;;;;5060327;28;20072;-86
2021/07/24 06:17:28;;;;;;;6.50;4.28;;;16.50;99.90;;;;;;5059898;28;20041;-86
2021/07/24 06:20:15;;;;;;;8.77;4.40;;;16.70;99.90;;;;;;5054018;28;20504;-86
2021/07/24 06:23:02;;;;;;;8.45;4.25;;;16.80;99.90;;;;;;5060606;28;20104;-86
2021/07/24 06:25:51;;;;;;;10.60;4.20;;;16.80;99.90;;;;;;5050046;28;20041;-88
2021/07/24 06:28:38;;;;;;;8.35;4.55;;;16.90;99.90;;;;;;5059043;28;20139;-86
2021/07/24 06:31:26;;;;;;;9.25;4.00;;;16.90;99.90;;;;;;5049938;28;20051;-84
2021/07/24 06:34:13;;;;;;;6.78;4.03;;;17.10;99.90;;;;;;5049202;28;20519;-85
2021/07/24 06:37:00;;;;;;;6.70;3.72;;;17.20;99.90;;;;;;5055521;28;20074;-88
2021/07/24 06:39:47;;;;;;;5.90;3.38;;;17.30;99.90;;;;;;5050262;28;20098;-87
2021/07/24 06:42:36;;;;;;;6.32;3.78;;;17.40;99.90;;;;;;5053347;28;20128;-86
2021/07/24 06:45:23;;;;;;;11.95;3.78;;;17.40;99.90;;;;;;5050226;28;20063;-86
2021/07/24 06:48:10;;;;;;;5.32;3.80;;;17.50;99.90;;;;;;5046575;28;20051;-86
2021/07/24 06:51:06;;;;;;;6.03;3.40;;;17.60;99.90;;;;;;5047016;28;20044;-85
2021/07/24 06:53:53;;;;;;;4.68;3.45;;;17.70;99.90;;;;;;5063617;28;20049;-87
2021/07/24 06:56:41;;;;;;;7.20;4.22;;;17.80;99.90;;;;;;5049525;28;20045;-86
2021/07/24 06:59:29;;;;;;;7.13;3.78;;;17.90;99.90;;;;;;5052540;28;20109;-86
2021/07/24 07:02:16;;;;;;;6.45;3.67;;;18.00;99.90;;;;;;5050165;28;20056;-84
2021/07/24 07:05:04;;;;;;;5.80;3.50;;;18.00;99.90;;;;;;5052399;28;20052;-87
2021/07/24 07:07:52;;;;;;;7.90;3.80;;;18.10;99.90;;;;;;5046565;28;20045;-86
2021/07/24 07:10:39;;;;;;;7.15;3.78;;;18.50;99.90;;;;;;5052324;28;20478;-85
2021/07/24 07:13:26;;;;;;;6.85;3.53;;;18.40;99.90;;;;;;5052999;28;20127;-87
2021/07/24 07:16:14;;;;;;;6.25;3.67;;;19.00;99.90;;;;;;5055570;28;20303;-85
2021/07/24 07:19:04;;;;;;;5.15;3.38;;;18.50;99.90;;;;;;5077239;22;20092;-84
2021/07/24 07:21:51;;;;;;;;;;;18.70;99.90;;;;;;5056370;28;20177;-85
2021/07/24 07:24:38;;;;;;;5.80;3.35;;;18.80;99.90;;;;;;5059134;28;19925;-84
2021/07/24 07:27:25;;;;;;;7.45;3.55;;;18.90;99.90;;;;;;5050906;28;20518;-85
2021/07/24 07:30:13;;;;;;;7.63;4.10;;;19.10;99.90;;;;;;5036027;28;20040;-85
2021/07/24 07:33:02;;;;;;;5.93;3.90;;;19.20;99.90;;;;;;5035556;28;20077;-85
2021/07/24 07:35:49;;;;;;;6.90;3.17;;;19.20;99.90;;;;;;5047586;28;20057;-85
2021/07/24 07:38:36;;;;;;;5.35;3.50;;;19.30;99.90;;;;;;5033670;28;20239;-85
2021/07/24 07:41:23;;;;;;;7.95;3.63;;;19.50;99.90;;;;;;5025644;28;20041;-86
2021/07/24 07:44:10;;;;;;;8.57;3.67;;;19.60;99.90;;;;;;5047022;28;20045;-86
2021/07/24 07:46:57;;;;;;;5.75;3.63;;;19.70;99.90;;;;;;5033745;28;20380;-86
2021/07/24 07:49:46;;;;;;;6.93;4.13;;;19.70;99.90;;;;;;5031677;28;20041;-85
2021/07/24 07:52:33;;;;;;;6.88;3.75;;;19.80;99.90;;;;;;5031026;28;20052;-84
2021/07/24 07:55:20;;;;;;;7.05;4.00;;;19.90;99.90;;;;;;5037245;28;20050;-85
2021/07/24 07:58:09;;;;;;;7.05;3.53;;;20.00;99.90;;;;;;5030256;28;20484;-84
2021/07/24 08:00:56;;;;;;;9.10;4.03;;;20.20;99.90;;;;;;5033819;28;20107;-85
2021/07/24 08:03:44;;;;;;;6.03;3.70;;;20.20;99.90;;;;;;5031527;28;20140;-84
2021/07/24 08:06:32;;;;;;;8.95;3.78;;;20.30;99.90;;;;;;5035242;28;20045;-85
2021/07/24 08:09:19;;;;;;;6.00;3.60;;;20.30;99.90;;;;;;5034103;28;20040;-85
2021/07/24 08:12:06;;;;;;;7.05;3.90;;;20.40;99.90;;;;;;5046605;28;20037;-85
2021/07/24 08:14:55;;;;;;;7.38;3.97;;;20.50;99.90;;;;;;5033677;28;20045;-86
2021/07/24 08:17:42;;;;;;;7.20;4.40;;;20.70;99.90;;;;;;5045181;28;20602;-86
2021/07/24 08:20:29;;;;;;;8.75;4.15;;;20.80;99.90;;;;;;5013257;28;20117;-86
2021/07/24 08:23:18;;;;;;;7.75;4.80;;;20.80;99.90;;;;;;5008798;28;20076;-85
2021/07/24 08:26:05;;;;;;;10.07;4.90;;;21.00;99.90;;;;;;5009122;28;20128;-86
2021/07/24 08:28:52;;;;;;;7.93;4.65;;;21.10;99.90;;;;;;4992933;28;20285;-85
2021/07/24 08:31:40;;;;;;;9.50;4.53;;;21.20;99.90;;;;;;5011859;28;20041;-86
2021/07/24 08:34:27;;;;;;;9.40;5.00;;;21.30;99.90;;;;;;5020970;28;20154;-88
2021/07/24 08:37:14;;;;;;;7.32;4.53;;;21.30;99.90;;;;;;4996119;28;20054;-85
2021/07/24 08:40:04;;;;;;;7.80;5.13;;;21.40;99.90;;;;;;5013550;28;20067;-85
2021/07/24 08:42:51;;;;;;;7.97;4.80;;;21.50;99.90;;;;;;4999395;28;20046;-85
2021/07/24 08:45:39;;;;;;;9.65;5.28;;;21.60;99.90;;;;;;4993480;28;20617;-86
2021/07/24 08:48:26;;;;;;;9.63;4.97;;;21.60;99.90;;;;;;5008009;28;20422;-85
2021/07/24 08:51:16;;;;;;;12.27;5.70;;;21.70;99.90;;;;;;4997782;28;20042;-85
2021/07/24 08:54:04;;;;;;;7.82;4.78;;;21.80;99.90;;;;;;4998291;28;20057;-85
2021/07/24 08:56:53;;;;;;;7.97;5.03;;;21.90;99.90;;;;;;4998070;28;20583;-85
2021/07/24 08:59:41;;;;;;;9.05;5.25;;;22.30;99.90;;;;;;5013074;28;20609;-84
2021/07/24 09:02:29;;;;;;;7.65;5.07;;;21.90;99.90;;;;;;5000497;28;20037;-85
2021/07/24 09:05:18;;;;;;;8.32;5.20;;;22.00;99.90;;;;;;5027007;28;20081;-85
2021/07/24 09:08:10;;;;;;;9.40;5.32;;;22.00;99.90;;;;;;4998432;28;20477;-86
2021/07/24 09:10:58;;;;;;;14.18;4.90;;;22.10;99.90;;;;;;4998348;28;20038;-85
2021/07/24 09:13:47;;;;;;;8.68;4.97;;;22.30;99.90;;;;;;5019638;28;20336;-86
2021/07/24 09:16:36;;;;;;;12.20;5.38;;;22.40;99.90;;;;;;4997121;28;20057;-85
2021/07/24 09:19:25;;;;;;;8.25;4.85;;;22.60;99.90;;;;;;5006470;28;20526;-85
2021/07/24 09:22:26;;;;;;;8.05;5.10;;;22.70;99.90;;;;;;5015465;28;20115;-85
2021/07/24 09:25:14;;;;;;;8.82;5.22;;;22.80;99.90;;;;;;5038946;28;20127;-85
2021/07/24 09:28:10;;;;;;;9.30;5.22;;;22.90;99.90;;;;;;5011735;28;20492;-85
2021/07/24 09:31:18;;;;;;;8.35;4.90;;;22.90;99.90;;;;;;5014214;28;20504;-85
2021/07/24 09:34:05;;;;;;;8.10;4.78;;;22.90;99.90;;;;;;5017675;28;20042;-85
2021/07/24 09:36:52;;;;;;;7.97;5.35;;;22.90;99.90;;;;;;5018825;28;20045;-84
2021/07/24 09:39:40;;;;;;;8.75;5.38;;;22.90;99.90;;;;;;5017615;28;20049;-86
2021/07/24 09:42:33;;;;;;;7.80;5.03;;;22.90;99.90;;;;;;5014708;28;20350;-86
2021/07/24 09:45:20;;;;;;;8.45;5.28;;;22.90;99.90;;;;;;5020171;28;20139;-86
2021/07/24 09:48:15;;;;;;;9.40;5.43;;;23.20;99.90;;;;;;5016799;28;20342;-85
2021/07/24 09:51:03;;;;;;;10.05;5.55;;;23.20;99.90;;;;;;5027993;28;20041;-85
2021/07/24 09:53:51;;;;;;;12.25;5.50;;;23.20;99.90;;;;;;5018542;28;20049;-85
2021/07/24 09:56:40;;;;;;;10.15;5.43;;;23.40;99.90;;;;;;5022358;28;20041;-85
2021/07/24 09:59:29;;;;;;;8.85;5.25;;;23.50;99.90;;;;;;5020275;28;20463;-86
2021/07/24 10:02:29;;;;;;;11.68;5.85;;;23.60;99.90;;;;;;5013326;28;20049;-83
2021/07/24 10:05:19;;;;;;;10.57;5.88;;;23.70;99.90;;;;;;5020176;28;20159;-84
2021/07/24 10:08:09;;;;;;;8.77;5.68;;;23.80;99.90;;;;;;5014176;28;20175;-86
2021/07/24 10:10:56;;;;;;;10.95;6.40;;;24.00;99.60;;;;;;5009845;28;20125;-86
2021/07/24 10:13:45;;;;;;;11.02;5.70;;;24.20;99.90;;;;;;5020034;28;20084;-85
2021/07/24 10:16:32;;;;;;;10.55;5.80;;;24.30;99.30;;;;;;5013281;28;20041;-86
2021/07/24 10:19:21;;;;;;;10.23;5.60;;;24.30;99.40;;;;;;5020449;28;20076;-86
2021/07/24 10:22:10;;;;;;;10.48;5.65;;;24.40;99.50;;;;;;5032724;28;20048;-84
2021/07/24 10:24:58;;;;;;;10.48;5.97;;;24.50;99.10;;;;;;5055451;28;20217;-84
2021/07/24 10:27:47;;;;;;;10.57;6.18;;;24.50;98.70;;;;;;5028751;28;20053;-85
2021/07/24 10:30:35;;;;;;;7.57;5.35;;;24.50;98.90;;;;;;5031079;28;20525;-85
2021/07/24 10:33:24;;;;;;;10.18;5.63;;;24.60;98.80;;;;;;5025305;28;20762;-84
2021/07/24 10:36:13;;;;;;;12.02;6.07;;;25.60;99.00;;;;;;5045082;28;20128;-85
2021/07/24 10:39:05;;;;;;;8.25;5.47;;;24.70;99.20;;;;;;5030287;28;20041;-85
2021/07/24 10:41:52;;;;;;;9.85;6.20;;;24.80;98.10;;;;;;5027532;28;20052;-83
2021/07/24 10:44:41;;;;;;;10.95;6.15;;;24.70;98.60;;;;;;5029728;28;20580;-85
2021/07/24 10:47:28;;;;;;;11.85;7.03;;;24.70;98.20;;;;;;5037141;28;20601;-85
2021/07/24 10:50:16;;;;;;;9.80;6.45;;;24.80;98.10;;;;;;5031989;28;20402;-85
2021/07/24 10:53:07;;;;;;;9.07;5.97;;;24.90;98.40;;;;;;5039079;28;20055;-85
2021/07/24 10:55:57;;;;;;;11.82;6.20;;;25.10;98.30;;;;;;5043462;28;20048;-85
2021/07/24 10:59:17;;;;;;;10.35;6.38;;;25.30;98.30;;;;;;5035570;28;20043;-84
2021/07/24 11:02:04;;;;;;;9.55;6.13;;;25.40;98.10;;;;;;5047029;28;20534;-86
2021/07/24 11:04:52;;;;;;;9.57;6.13;;;25.60;97.80;;;;;;5034552;28;20441;-85
2021/07/24 11:07:40;;;;;;;10.57;6.47;;;25.80;97.30;;;;;;5047406;28;20047;-85
2021/07/24 11:10:27;;;;;;;9.20;6.03;;;25.80;97.50;;;;;;5063035;28;20072;-86
2021/07/24 11:13:49;;;;;;;9.40;6.20;;;26.00;98.40;;;;;;5033183;28;20567;-86
2021/07/24 11:17:14;;;;;;;11.27;6.68;;;26.10;98.20;;;;;;5049234;28;20051;-85
2021/07/24 11:20:45;;;;;;;9.35;6.00;;;26.40;97.70;;;;;;5050790;28;20048;-86
2021/07/24 11:24:07;;;;;;;11.93;6.50;;;26.30;97.60;;;;;;5050036;28;20682;-86
2021/07/24 11:26:56;;;;;;;10.13;5.93;;;26.50;97.20;;;;;;5048894;28;20055;-85
2021/07/24 11:29:45;;;;;;;10.50;6.47;;;26.40;97.30;;;;;;5044083;28;20079;-85
2021/07/24 11:32:33;;;;;;;10.30;6.03;;;26.30;96.10;;;;;;5042804;28;20123;-86
2021/07/24 11:35:27;;;;;;;12.40;6.07;;;26.30;97.00;;;;;;5054024;28;20043;-86
2021/07/24 11:38:24;;;;;;;9.25;5.78;;;26.50;97.20;;;;;;5038218;28;20136;-86
2021/07/24 11:41:12;;;;;;;10.57;6.13;;;27.00;96.70;;;;;;5043283;28;20097;-84
2021/07/24 11:43:59;;;;;;;11.18;6.55;;;26.70;96.80;;;;;;5049798;28;20190;-84
2021/07/24 11:46:57;;;;;;;9.98;6.43;;;26.70;96.50;;;;;;5040066;28;20083;-85
2021/07/24 11:49:44;;;;;;;11.95;6.22;;;26.70;96.30;;;;;;5046437;28;20552;-85
2021/07/24 11:52:31;;;;;;;10.43;6.30;;;26.90;96.20;;;;;;5040318;28;20492;-84
2021/07/24 11:55:25;;;;;;;10.75;6.28;;;27.00;96.30;;;;;;5035362;28;20059;-85
2021/07/24 11:58:14;;;;;;;9.40;6.05;;;27.30;95.60;;;;;;5036239;28;20733;-86
2021/07/24 12:01:17;;;;;;;9.55;6.20;;;27.40;96.40;;;;;;5037279;28;20044;-84
2021/07/24 12:04:07;;;;;;;9.27;6.32;;;27.50;95.80;;;;;;5046525;28;20147;-84
2021/07/24 12:07:01;;;;;;;9.40;6.38;;;27.70;95.20;;;;;;5036409;28;20131;-84
2021/07/24 12:09:48;;;;;;;7.88;5.95;;;27.90;95.20;;;;;;5037353;28;20068;-87
2021/07/24 12:12:36;;;;;;;11.20;6.28;;;27.60;95.10;;;;;;5038747;28;20053;-87
2021/07/24 12:15:23;;;;;;;9.45;6.35;;;28.00;94.70;;;;;;5040959;28;20124;-86
2021/07/24 12:18:17;;;;;;;8.52;5.93;;;27.90;95.00;;;;;;5050537;28;20044;-86
2021/07/24 12:21:12;;;;;;;11.73;6.03;;;28.00;95.50;;;;;;5050396;28;20047;-86
2021/07/24 12:24:00;;;;;;;10.07;6.00;;;28.00;96.00;;;;;;5043676;28;20515;-86
2021/07/24 12:26:47;;;;;;;10.50;6.43;;;28.00;95.20;;;;;;5026100;28;20420;-87
2021/07/24 12:29:49;;;;;;;9.43;5.57;;;28.10;95.50;;;;;;5039009;28;20122;-86
2021/07/24 12:32:40;;;;;;;13.88;6.93;;;28.20;94.80;;;;;;5037133;28;20091;-86
2021/07/24 12:35:27;;;;;;;7.82;5.68;;;28.20;94.60;;;;;;5030437;28;20034;-86
2021/07/24 12:38:27;;;;;;;10.32;5.85;;;28.30;94.90;;;;;;5037484;28;20048;-86
2021/07/24 12:41:14;;;;;;;10.93;6.28;;;28.70;94.30;;;;;;5053082;28;20044;-85
2021/07/24 12:44:06;;;;;;;11.45;5.85;;;28.70;95.20;;;;;;5033861;28;20392;-86
2021/07/24 12:47:11;;;;;;;15.13;6.32;;;28.70;94.00;;;;;;5048823;28;20045;-86
2021/07/24 12:50:12;;;;;;;8.68;5.75;;;28.40;93.50;;;;;;5063461;28;20053;-87
2021/07/24 12:52:59;;;;;;;10.63;6.35;;;28.40;94.30;;;;;;5037785;28;20701;-85
2021/07/24 12:55:52;;;;;;;10.35;6.38;;;28.70;93.60;;;;;;5035756;28;20120;-86
2021/07/24 12:58:39;;;;;;;10.35;6.70;;;28.90;94.00;;;;;;5033159;28;20049;-87
2021/07/24 13:01:26;;;;;;;11.68;6.47;;;29.20;93.00;;;;;;5041184;28;20126;-85
2021/07/24 13:04:14;;;;;;;16.63;8.98;;;29.20;93.30;;;;;;5049042;28;20455;-85
2021/07/24 13:07:05;;;;;;;12.05;8.07;;;28.90;94.20;;;;;;5030751;28;20187;-87
2021/07/24 13:09:53;;;;;;;12.35;7.72;;;28.90;93.30;;;;;;5029250;28;20167;-86
2021/07/24 13:12:43;;;;;;;9.40;6.47;;;29.00;93.50;;;;;;5024281;28;20117;-84
2021/07/24 13:15:30;;;;;;;10.55;6.93;;;29.20;94.20;;;;;;5039825;28;20044;-86
2021/07/24 13:18:19;;;;;;;10.18;5.88;;;29.30;93.40;;;;;;5034682;28;20049;-86
2021/07/24 13:21:06;;;;;;;9.70;6.78;;;29.50;93.40;;;;;;5041632;28;20048;-83
2021/07/24 13:23:57;;;;;;;8.10;5.68;;;29.70;93.30;;;;;;5044534;28;20548;-86
2021/07/24 13:29:32;;;;;;;13.88;6.68;;;29.90;92.60;;;;;;5051013;28;20055;-84
2021/07/24 13:32:20;;;;;;;12.63;6.82;;;29.90;92.10;;;;;;5036614;28;20044;-86
2021/07/24 13:35:08;;;;;;;14.07;6.68;;;30.00;92.50;;;;;;5053941;28;20067;-84
2021/07/24 13:37:55;;;;;;;14.30;7.00;;;29.60;92.50;;;;;;5033641;28;20048;-87
2021/07/24 13:40:43;;;;;;;12.23;6.50;;;30.10;93.50;;;;;;5036886;28;20492;-86
2021/07/24 13:43:30;;;;;;;12.05;6.90;;;29.60;93.30;;;;;;5036132;28;20052;-83
2021/07/24 13:46:18;;;;;;;14.00;7.05;;;29.70;93.20;;;;;;5053356;28;20044;-87
2021/07/24 13:49:06;;;;;;;14.75;7.28;;;29.90;93.20;;;;;;5044638;28;20116;-86
2021/07/24 13:51:53;;;;;;;12.48;6.75;;;30.10;93.70;;;;;;5035588;28;20040;-87
2021/07/24 13:54:40;;;;;;;15.35;7.45;;;30.00;93.00;;;;;;5054677;28;20491;-85
2021/07/24 13:57:28;;;;;;;14.05;6.72;;;30.00;92.30;;;;;;5038815;28;20175;-85
2021/07/24 14:00:15;;;;;;;14.98;7.05;;;29.90;92.30;;;;;;5033483;28;20049;-85
2021/07/24 14:03:04;;;;;;;10.02;6.70;;;29.90;91.90;;;;;;5032956;28;20037;-86
2021/07/24 14:05:59;;;;;;;9.77;6.57;;;29.80;93.70;;;;;;5031742;28;20124;-86
2021/07/24 14:08:46;;;;;;;11.70;6.35;;;29.70;93.00;;;;;;5049372;28;20587;-85
2021/07/24 14:11:33;;;;;;;11.13;6.47;;;29.40;93.00;;;;;;5024899;28;20098;-86
2021/07/24 14:14:20;;;;;;;11.18;6.78;;;29.40;93.10;;;;;;5047804;28;20052;-86
2021/07/24 14:17:07;;;;;;;12.15;7.20;;;29.30;93.20;;;;;;5028392;28;20086;-84
2021/07/24 14:19:56;;;;;;;10.00;6.22;;;29.20;93.70;;;;;;5045821;28;20075;-86
2021/07/24 14:22:43;;;;;;;9.70;7.30;;;29.30;93.70;;;;;;5037951;28;20132;-86
2021/07/24 14:25:30;;;;;;;12.52;6.68;;;29.30;93.90;;;;;;5027426;28;20045;-84
2021/07/24 14:28:17;;;;;;;10.75;7.40;;;29.40;93.40;;;;;;5048778;28;20495;-86
2021/07/24 14:31:04;;;;;;;10.32;7.30;;;29.40;92.70;;;;;;5033321;28;20423;-86
2021/07/24 14:33:53;;;;;;;11.27;6.80;;;29.40;93.40;;;;;;5038383;28;20098;-87
2021/07/24 14:36:41;;;;;;;10.30;6.45;;;29.30;92.60;;;;;;5035676;28;20049;-86
2021/07/24 14:39:28;;;;;;;11.80;7.30;;;29.20;93.00;;;;;;5050871;28;20051;-86
2021/07/24 14:42:16;;;;;;;9.32;6.88;;;29.00;93.70;;;;;;5043575;28;20125;-86